Time;durP1;ratioP1;P1;durP2;ratioP2;P2;SDS_P1;SDS_P2;PMS_P1;PMS_P2;Temp;Humidity;BMP_temperature;BMP_pressure;BME280_temperature;BME280_humidity;BME280_pressure;Samples;Min_cycle;Max_cycle;Signal;HPM_P1;HPM_P2
2023/09/02 00:01:51;;;;;;;1.38;0.50;;;15.90;99.90;;;;;;5073580;28;20204;-74
2023/09/02 00:04:22;;;;;;;1.95;0.65;;;16.00;99.90;;;;;;5069610;28;20327;-81
2023/09/02 00:06:53;;;;;;;2.00;0.60;;;16.10;99.90;;;;;;5073335;28;20197;-77
2023/09/02 00:09:24;;;;;;;3.15;0.70;;;16.20;99.90;;;;;;5072880;28;20228;-89
2023/09/02 00:11:56;;;;;;;4.05;0.80;;;16.30;99.90;;;;;;5064884;28;20229;-79
2023/09/02 00:14:27;;;;;;;3.80;1.00;;;16.40;99.90;;;;;;5073340;28;20207;-88
2023/09/02 00:16:58;;;;;;;6.18;0.80;;;16.60;99.90;;;;;;5079915;28;20557;-86
2023/09/02 00:19:28;;;;;;;3.25;0.63;;;16.80;99.90;;;;;;5092419;28;20188;-87
2023/09/02 00:21:59;;;;;;;2.15;0.50;;;16.80;99.90;;;;;;5086538;28;20199;-73
2023/09/02 00:24:30;;;;;;;5.80;0.80;;;17.00;99.90;;;;;;5080093;28;20220;-85
2023/09/02 00:27:03;;;;;;;2.47;0.70;;;17.10;99.90;;;;;;5093682;28;20189;-86
2023/09/02 00:29:33;;;;;;;4.13;0.60;;;17.20;99.90;;;;;;5091121;28;20207;-79
2023/09/02 00:32:04;;;;;;;5.22;0.80;;;17.30;99.90;;;;;;5093761;28;20239;-80
2023/09/02 00:34:35;;;;;;;2.08;0.47;;;17.60;99.90;;;;;;5078061;28;20574;-76
2023/09/02 00:37:06;;;;;;;3.13;0.65;;;17.60;99.90;;;;;;5073233;28;20637;-74
2023/09/02 00:39:36;;;;;;;3.13;0.60;;;17.80;99.90;;;;;;5078419;28;20192;-79
2023/09/02 00:42:12;;;;;;;2.55;0.50;;;17.90;99.90;;;;;;5092679;28;20191;-78
2023/09/02 00:44:43;;;;;;;3.17;0.70;;;18.10;99.90;;;;;;5092113;28;20211;-74
2023/09/02 00:47:14;;;;;;;2.28;0.60;;;18.10;99.90;;;;;;5072992;28;20205;-79
2023/09/02 00:49:45;;;;;;;2.65;0.60;;;18.10;99.90;;;;;;5075142;28;20181;-74
2023/09/02 00:52:16;;;;;;;4.07;0.47;;;18.20;99.90;;;;;;5083583;28;20223;-83
2023/09/02 00:54:47;;;;;;;1.83;0.45;;;18.20;99.90;;;;;;5087065;28;20205;-77
2023/09/02 00:57:19;;;;;;;2.47;0.40;;;18.20;99.90;;;;;;5074543;28;20196;-78
2023/09/02 00:59:50;;;;;;;3.22;0.43;;;18.30;99.90;;;;;;5081614;28;20562;-79
2023/09/02 01:02:22;;;;;;;3.53;1.00;;;18.30;99.90;;;;;;5072874;28;20207;-80
2023/09/02 01:04:53;;;;;;;2.47;0.60;;;18.50;99.90;;;;;;5073033;28;20219;-80
2023/09/02 01:07:26;;;;;;;1.90;0.70;;;18.60;99.90;;;;;;5074674;28;20561;-79
2023/09/02 01:09:57;;;;;;;3.00;0.55;;;18.50;99.90;;;;;;5086871;28;20199;-76
2023/09/02 01:12:30;;;;;;;3.65;0.60;;;18.50;99.90;;;;;;5078215;28;20242;-78
2023/09/02 01:15:01;;;;;;;2.55;0.50;;;18.60;99.90;;;;;;5072935;28;20204;-76
2023/09/02 01:17:32;;;;;;;2.25;0.60;;;18.60;99.90;;;;;;5086192;28;20192;-85
2023/09/02 01:20:06;;;;;;;2.03;0.70;;;18.70;99.90;;;;;;5072781;28;20263;-80
2023/09/02 01:23:13;;;;;;;3.30;0.60;;;18.80;99.90;;;;;;5073959;28;20203;-73
2023/09/02 01:26:10;;;;;;;3.10;0.80;;;18.90;99.90;;;;;;5080757;28;20204;-78
2023/09/02 01:28:45;;;;;;;2.85;0.63;;;18.90;99.90;;;;;;5077796;28;20203;-79
2023/09/02 01:31:18;;;;;;;3.92;0.73;;;18.80;99.90;;;;;;5072757;28;20188;-77
2023/09/02 01:33:52;;;;;;;2.15;0.65;;;18.70;99.90;;;;;;5072614;28;20189;-77
2023/09/02 01:36:26;;;;;;;5.88;0.80;;;18.80;99.90;;;;;;5086738;28;20554;-77
2023/09/02 01:38:58;;;;;;;1.73;0.68;;;18.90;99.90;;;;;;5077334;28;20545;-79
2023/09/02 01:41:31;;;;;;;2.88;0.63;;;19.00;99.90;;;;;;5089988;28;20208;-81
2023/09/02 01:44:05;;;;;;;2.28;0.60;;;19.20;99.90;;;;;;5090974;28;20255;-81
2023/09/02 01:46:35;;;;;;;5.97;0.80;;;19.20;99.90;;;;;;5087758;28;20207;-76
2023/09/02 01:49:07;;;;;;;4.40;0.68;;;19.00;99.90;;;;;;5087806;28;20192;-82
2023/09/02 01:51:38;;;;;;;3.92;0.68;;;18.90;99.90;;;;;;5076174;28;20220;-75
2023/09/02 01:54:09;;;;;;;3.92;0.70;;;18.80;99.90;;;;;;5074343;28;20210;-77
2023/09/02 01:56:40;;;;;;;3.00;0.77;;;18.80;99.90;;;;;;5072039;28;20185;-76
2023/09/02 01:59:13;;;;;;;2.90;0.80;;;18.90;99.90;;;;;;5086373;28;20197;-75
2023/09/02 02:01:44;;;;;;;3.15;0.65;;;18.80;99.90;;;;;;5075778;28;20216;-76
2023/09/02 02:04:18;;;;;;;3.90;0.90;;;18.90;99.90;;;;;;5085793;28;20216;-81
2023/09/02 02:06:51;;;;;;;2.33;0.50;;;18.80;99.90;;;;;;5096040;28;20562;-78
2023/09/02 02:09:26;;;;;;;1.67;0.60;;;18.80;99.90;;;;;;5092346;28;20202;-88
2023/09/02 02:11:58;;;;;;;2.15;0.60;;;19.00;99.90;;;;;;5076457;28;20232;-78
2023/09/02 02:14:34;;;;;;;3.33;0.40;;;19.10;99.90;;;;;;5075353;28;20205;-80
2023/09/02 02:17:05;;;;;;;3.55;0.70;;;19.10;99.90;;;;;;5076974;28;20312;-81
2023/09/02 02:19:36;;;;;;;3.65;0.68;;;18.90;99.90;;;;;;5094103;28;20644;-74
2023/09/02 02:22:08;;;;;;;2.67;0.57;;;18.90;99.90;;;;;;5091474;28;20545;-76
2023/09/02 02:24:38;;;;;;;2.97;0.60;;;18.80;99.90;;;;;;5095573;28;20223;-76
2023/09/02 02:27:09;;;;;;;4.78;1.00;;;18.80;99.90;;;;;;5081274;28;20227;-75
2023/09/02 02:29:42;;;;;;;2.22;0.65;;;18.90;99.90;;;;;;5095332;28;20198;-80
2023/09/02 02:32:13;;;;;;;2.38;0.75;;;18.90;99.90;;;;;;5082202;28;20215;-76
2023/09/02 02:34:43;;;;;;;2.65;0.60;;;18.80;99.90;;;;;;5078020;28;20562;-82
2023/09/02 02:37:14;;;;;;;3.55;0.70;;;18.70;99.90;;;;;;5075311;28;20189;-78
2023/09/02 02:39:45;;;;;;;1.58;0.50;;;18.50;99.90;;;;;;5091819;28;20207;-78
2023/09/02 02:42:16;;;;;;;3.75;0.60;;;18.60;99.90;;;;;;5095058;28;20184;-78
2023/09/02 02:44:48;;;;;;;2.17;0.60;;;18.60;99.90;;;;;;5088949;28;20265;-79
2023/09/02 02:47:19;;;;;;;2.25;0.63;;;18.50;99.90;;;;;;5081685;28;20189;-75
2023/09/02 02:49:50;;;;;;;2.70;0.68;;;18.60;99.90;;;;;;5091766;28;20601;-75
2023/09/02 02:52:21;;;;;;;3.25;0.70;;;18.70;99.90;;;;;;5074953;28;20216;-80
2023/09/02 02:54:52;;;;;;;3.50;0.50;;;18.60;99.90;;;;;;5074791;28;20284;-78
2023/09/02 02:57:23;;;;;;;3.58;0.50;;;18.60;99.90;;;;;;5092354;28;20574;-73
2023/09/02 02:59:57;;;;;;;2.55;0.50;;;18.70;99.90;;;;;;5094974;28;20188;-73
2023/09/02 03:02:27;;;;;;;5.68;0.90;;;18.70;99.90;;;;;;5074701;28;20278;-79
2023/09/02 03:04:59;;;;;;;4.40;0.80;;;18.80;99.90;;;;;;5074670;28;20588;-74
2023/09/02 03:07:29;;;;;;;3.28;0.73;;;18.90;99.90;;;;;;5082885;28;20572;-74
2023/09/02 03:10:00;;;;;;;3.45;0.55;;;18.80;99.90;;;;;;5093981;28;20636;-74
2023/09/02 03:12:32;;;;;;;3.42;0.70;;;18.70;99.90;;;;;;5092947;28;20250;-74
2023/09/02 03:15:05;;;;;;;3.22;0.57;;;18.80;99.90;;;;;;5087753;28;20200;-74
2023/09/02 03:17:35;;;;;;;2.40;0.70;;;18.60;99.90;;;;;;5075425;28;20188;-74
2023/09/02 03:20:07;;;;;;;2.22;0.50;;;18.50;99.90;;;;;;5088483;28;20310;-79
2023/09/02 03:22:37;;;;;;;2.13;0.60;;;18.50;99.90;;;;;;5094382;28;20546;-76
2023/09/02 03:25:09;;;;;;;4.00;0.70;;;18.50;99.90;;;;;;5091336;28;20212;-76
2023/09/02 03:27:41;;;;;;;4.82;0.60;;;18.40;99.90;;;;;;5092791;28;20185;-75
2023/09/02 03:30:14;;;;;;;4.32;0.75;;;18.20;99.90;;;;;;5092118;28;20204;-79
2023/09/02 03:32:45;;;;;;;3.78;0.60;;;18.20;99.90;;;;;;5094173;28;20232;-76
2023/09/02 03:35:16;;;;;;;4.25;0.65;;;18.20;99.90;;;;;;5078132;28;20192;-79
2023/09/02 03:37:46;;;;;;;2.17;0.70;;;18.20;99.90;;;;;;5078855;28;20208;-75
2023/09/02 03:40:17;;;;;;;2.83;0.55;;;18.10;99.90;;;;;;5075377;28;20227;-74
2023/09/02 03:42:48;;;;;;;2.17;0.57;;;18.00;99.90;;;;;;5079475;28;20192;-77
2023/09/02 03:45:21;;;;;;;2.50;0.50;;;17.90;99.90;;;;;;5086045;28;20212;-75
2023/09/02 03:47:51;;;;;;;9.63;3.92;;;17.90;99.90;;;;;;5092900;28;20197;-75
2023/09/02 03:50:24;;;;;;;2.63;0.73;;;17.90;99.90;;;;;;5073578;28;20221;-77
2023/09/02 03:52:55;;;;;;;3.75;0.70;;;18.10;99.90;;;;;;5072544;28;20573;-73
2023/09/02 03:55:25;;;;;;;7.28;0.98;;;18.00;99.90;;;;;;5081490;28;20543;-73
2023/09/02 03:57:56;;;;;;;3.38;0.80;;;17.90;99.90;;;;;;5091895;28;20212;-80
2023/09/02 04:00:29;;;;;;;6.18;1.65;;;17.90;99.90;;;;;;5091502;28;20206;-79
2023/09/02 04:02:59;;;;;;;3.47;0.80;;;18.00;99.90;;;;;;5091951;28;20192;-74
2023/09/02 04:05:30;;;;;;;2.33;0.73;;;18.00;99.90;;;;;;5076671;28;20251;-83
2023/09/02 04:08:01;;;;;;;7.25;1.63;;;18.00;99.90;;;;;;5082136;28;20656;-84
2023/09/02 04:10:32;;;;;;;4.10;0.70;;;17.90;99.90;;;;;;5081736;28;20200;-79
2023/09/02 04:13:02;;;;;;;5.63;1.77;;;17.90;99.90;;;;;;5081412;28;20228;-84
2023/09/02 04:15:35;;;;;;;5.90;0.80;;;17.90;99.90;;;;;;5077165;28;20204;-82
2023/09/02 04:18:06;;;;;;;5.20;0.82;;;17.90;99.90;;;;;;5080078;28;20192;-82
2023/09/02 04:20:40;;;;;;;5.97;1.00;;;17.70;99.90;;;;;;5078030;28;20196;-83
2023/09/02 04:23:11;;;;;;;28.48;17.92;;;17.60;99.90;;;;;;5083479;28;20278;-86
2023/09/02 04:25:52;;;;;;;3.78;1.00;;;17.50;99.90;;;;;;5074009;28;20213;-78
2023/09/02 04:28:23;;;;;;;5.00;0.95;;;17.40;99.90;;;;;;5087954;28;20561;-79
2023/09/02 04:30:58;;;;;;;5.55;0.88;;;17.40;99.90;;;;;;5089000;28;20196;-76
2023/09/02 04:33:28;;;;;;;4.55;1.23;;;17.40;99.90;;;;;;5092290;28;20203;-80
2023/09/02 04:35:59;;;;;;;4.30;0.80;;;17.40;99.90;;;;;;5083685;28;20714;-77
2023/09/02 04:38:30;;;;;;;3.30;1.10;;;17.40;99.90;;;;;;5080104;28;20189;-76
2023/09/02 04:41:06;;;;;;;3.47;0.85;;;17.40;99.90;;;;;;5081738;28;20192;-82
2023/09/02 04:43:37;;;;;;;2.90;0.68;;;17.30;99.90;;;;;;5090376;28;20280;-76
2023/09/02 04:46:10;;;;;;;4.97;0.70;;;17.30;99.90;;;;;;5092131;28;20223;-80
2023/09/02 04:48:42;;;;;;;2.92;0.57;;;17.30;99.90;;;;;;5090062;28;20207;-81
2023/09/02 04:51:12;;;;;;;3.35;0.52;;;17.20;99.90;;;;;;5091988;28;20224;-82
2023/09/02 04:53:43;;;;;;;2.25;0.80;;;17.30;99.90;;;;;;5092437;28;20196;-82
2023/09/02 04:56:14;;;;;;;4.07;0.60;;;17.20;99.90;;;;;;5093090;28;20204;-85
2023/09/02 04:58:45;;;;;;;3.85;0.90;;;17.20;99.90;;;;;;5093307;28;20204;-85
2023/09/02 05:01:18;;;;;;;4.82;0.60;;;17.20;99.90;;;;;;5090858;28;20200;-84
2023/09/02 05:03:48;;;;;;;3.33;0.50;;;17.20;99.90;;;;;;5093248;28;20188;-88
2023/09/02 05:06:19;;;;;;;1.67;0.60;;;17.10;99.90;;;;;;5090649;28;20196;-86
2023/09/02 05:08:54;;;;;;;3.05;1.00;;;17.10;99.90;;;;;;5093295;28;20188;-87
2023/09/02 05:11:24;;;;;;;3.42;0.90;;;17.10;99.90;;;;;;5092151;28;20200;-87
2023/09/02 05:13:55;;;;;;;1.95;0.73;;;17.10;99.90;;;;;;5072901;28;20201;-79
2023/09/02 05:16:28;;;;;;;5.88;0.70;;;17.10;99.90;;;;;;5072793;28;20645;-81
2023/09/02 05:18:58;;;;;;;4.13;0.60;;;17.00;99.90;;;;;;5055916;28;20197;-82
2023/09/02 05:21:30;;;;;;;5.20;1.17;;;17.10;99.90;;;;;;5052780;28;20186;-82
2023/09/02 05:24:01;;;;;;;3.10;0.55;;;17.10;99.90;;;;;;5063335;28;20197;-81
2023/09/02 05:26:31;;;;;;;3.25;0.63;;;17.10;99.90;;;;;;5072734;28;20191;-85
2023/09/02 05:29:03;;;;;;;2.30;0.52;;;17.10;99.90;;;;;;5071447;28;20189;-82
2023/09/02 05:31:35;;;;;;;3.42;0.95;;;17.10;99.90;;;;;;5072487;28;20711;-84
2023/09/02 05:34:06;;;;;;;2.55;0.55;;;17.00;99.90;;;;;;5074477;28;20193;-79
2023/09/02 05:36:37;;;;;;;5.18;0.63;;;17.00;99.90;;;;;;5075521;28;20561;-81
2023/09/02 05:39:08;;;;;;;2.45;0.60;;;17.00;99.90;;;;;;5076383;28;20188;-78
2023/09/02 05:41:39;;;;;;;3.55;0.77;;;17.00;99.90;;;;;;5074488;28;20208;-84
2023/09/02 05:44:10;;;;;;;2.38;0.52;;;16.90;99.90;;;;;;5076187;28;20271;-85
2023/09/02 05:46:42;;;;;;;2.30;0.75;;;16.90;99.90;;;;;;5074360;28;20575;-84
2023/09/02 05:49:14;;;;;;;4.05;0.90;;;16.90;99.90;;;;;;5075886;28;20193;-81
2023/09/02 05:51:45;;;;;;;3.83;0.80;;;16.90;99.90;;;;;;5074913;28;20216;-83
2023/09/02 05:54:16;;;;;;;4.32;0.73;;;16.90;99.90;;;;;;5056798;28;20654;-80
2023/09/02 05:56:48;;;;;;;2.60;0.63;;;16.90;99.90;;;;;;5056154;28;20312;-84
2023/09/02 05:59:19;;;;;;;3.30;0.70;;;16.80;99.90;;;;;;5070798;28;20288;-81
2023/09/02 06:01:52;;;;;;;5.35;1.00;;;16.90;99.90;;;;;;5075959;28;20215;-79
2023/09/02 06:04:23;;;;;;;6.05;0.70;;;16.80;99.90;;;;;;5073707;28;20197;-78
2023/09/02 06:06:53;;;;;;;4.50;0.70;;;16.80;99.90;;;;;;5075934;28;20200;-79
2023/09/02 06:09:26;;;;;;;2.15;0.50;;;16.90;99.90;;;;;;5074573;28;20212;-83
2023/09/02 06:11:57;;;;;;;2.20;0.70;;;16.90;99.90;;;;;;5079570;28;20599;-83
2023/09/02 06:14:27;;;;;;;3.25;0.70;;;16.80;99.90;;;;;;5096139;28;20200;-83
2023/09/02 06:17:00;;;;;;;5.90;0.80;;;16.80;99.90;;;;;;5093455;28;20196;-81
2023/09/02 06:19:32;;;;;;;4.30;0.80;;;16.80;99.90;;;;;;5087122;28;20543;-88
2023/09/02 06:22:03;;;;;;;3.85;0.73;;;16.80;99.90;;;;;;5091313;28;20228;-81
2023/09/02 06:24:34;;;;;;;1.75;0.63;;;16.80;99.90;;;;;;5095934;28;20203;-74
2023/09/02 06:27:05;;;;;;;3.13;0.47;;;16.80;99.90;;;;;;5093624;28;20279;-75
2023/09/02 06:29:37;;;;;;;2.60;0.40;;;16.70;99.90;;;;;;5095721;28;20199;-75
2023/09/02 06:32:10;;;;;;;1.77;0.50;;;16.60;99.90;;;;;;5094715;28;20192;-76
2023/09/02 06:34:40;;;;;;;2.67;0.60;;;16.60;99.90;;;;;;5094935;28;20200;-74
2023/09/02 06:37:11;;;;;;;3.42;0.60;;;16.60;99.90;;;;;;5095647;28;20546;-75
2023/09/02 06:39:42;;;;;;;3.00;0.50;;;16.60;99.90;;;;;;5093256;28;20197;-74
2023/09/02 06:42:13;;;;;;;4.70;0.70;;;16.50;99.90;;;;;;5095502;28;20199;-74
2023/09/02 06:44:46;;;;;;;2.90;0.60;;;16.50;99.90;;;;;;5093408;28;20250;-75
2023/09/02 06:47:20;;;;;;;2.58;0.70;;;16.50;99.90;;;;;;5095373;28;20280;-75
2023/09/02 06:49:51;;;;;;;3.30;0.40;;;16.50;99.90;;;;;;5093241;28;20235;-74
2023/09/02 06:52:22;;;;;;;3.10;0.80;;;16.40;99.90;;;;;;5095097;28;20201;-74
2023/09/02 06:54:53;;;;;;;2.90;0.68;;;16.40;99.90;;;;;;5095303;28;20189;-75
2023/09/02 06:57:24;;;;;;;2.28;0.50;;;16.30;99.90;;;;;;5092911;28;20192;-74
2023/09/02 06:59:55;;;;;;;2.75;0.65;;;16.30;99.90;;;;;;5095114;28;20193;-74
2023/09/02 07:02:27;;;;;;;0.80;0.40;;;16.30;99.90;;;;;;5088913;28;20205;-78
2023/09/02 07:04:58;;;;;;;2.72;0.70;;;16.20;99.90;;;;;;5074777;28;20722;-76
2023/09/02 07:07:29;;;;;;;2.00;0.88;;;16.20;99.90;;;;;;5078978;28;20196;-78
2023/09/02 07:10:00;;;;;;;2.25;0.90;;;16.20;99.90;;;;;;5094674;28;20196;-81
2023/09/02 07:12:31;;;;;;;2.47;0.70;;;16.10;99.90;;;;;;5094759;28;20236;-83
2023/09/02 07:15:02;;;;;;;1.98;0.90;;;16.10;99.90;;;;;;5092413;28;20196;-78
2023/09/02 07:17:34;;;;;;;1.60;0.70;;;16.00;99.90;;;;;;5092606;28;20557;-76
2023/09/02 07:20:06;;;;;;;3.30;0.73;;;16.00;99.90;;;;;;5086022;28;20195;-76
2023/09/02 07:22:38;;;;;;;1.80;0.60;;;15.90;99.90;;;;;;5091744;28;20189;-74
2023/09/02 07:25:10;;;;;;;2.42;0.70;;;15.90;99.90;;;;;;5077564;28;20668;-74
2023/09/02 07:27:41;;;;;;;3.53;0.90;;;15.90;99.90;;;;;;5093788;28;20199;-73
2023/09/02 07:30:12;;;;;;;4.15;0.82;;;15.80;99.90;;;;;;5094053;28;20200;-74
2023/09/02 07:32:45;;;;;;;3.97;0.68;;;15.80;99.90;;;;;;5094617;28;20659;-75
2023/09/02 07:35:16;;;;;;;5.60;0.80;;;15.90;99.90;;;;;;5093304;28;20199;-74
2023/09/02 07:37:47;;;;;;;3.30;0.70;;;15.80;99.90;;;;;;5094481;28;20564;-74
2023/09/02 07:40:18;;;;;;;2.83;0.90;;;15.80;99.90;;;;;;5092029;28;20194;-74
2023/09/02 07:42:50;;;;;;;5.13;1.02;;;15.70;99.90;;;;;;5094366;28;20206;-74
2023/09/02 07:45:21;;;;;;;5.30;0.95;;;15.60;99.90;;;;;;5089141;28;20213;-74
2023/09/02 07:47:53;;;;;;;3.05;0.45;;;15.50;99.90;;;;;;5084672;28;20200;-72
2023/09/02 07:50:24;;;;;;;5.50;0.70;;;15.40;99.90;;;;;;5077679;28;20298;-75
2023/09/02 07:52:55;;;;;;;3.47;0.70;;;15.40;99.90;;;;;;5087984;28;20283;-74
2023/09/02 07:55:26;;;;;;;6.90;0.95;;;15.30;99.90;;;;;;5089291;28;20691;-81
2023/09/02 07:57:57;;;;;;;3.67;0.70;;;15.20;99.90;;;;;;5082516;28;20192;-75
2023/09/02 08:00:28;;;;;;;4.95;0.90;;;15.20;99.90;;;;;;5087819;28;20297;-79
2023/09/02 08:03:01;;;;;;;2.85;0.80;;;15.10;99.90;;;;;;5088222;28;20220;-79
2023/09/02 08:05:32;;;;;;;2.13;0.82;;;15.10;99.90;;;;;;5083055;28;20220;-82
2023/09/02 08:08:03;;;;;;;4.32;0.90;;;15.10;99.90;;;;;;5084582;28;20193;-83
2023/09/02 08:10:33;;;;;;;1.55;0.65;;;15.00;99.90;;;;;;5079696;28;20288;-79
2023/09/02 08:13:04;;;;;;;3.03;0.90;;;15.00;99.90;;;;;;5073448;28;20232;-83
2023/09/02 08:15:35;;;;;;;1.95;0.88;;;15.00;99.90;;;;;;5078743;28;20223;-81
2023/09/02 08:18:08;;;;;;;2.95;1.10;;;15.00;99.90;;;;;;5080836;28;20203;-81
2023/09/02 08:20:40;;;;;;;5.97;0.95;;;14.90;99.90;;;;;;5079222;28;23263;-79
2023/09/02 08:23:11;;;;;;;6.20;1.05;;;14.90;99.90;;;;;;5083729;28;20226;-84
2023/09/02 08:25:42;;;;;;;4.07;1.20;;;14.90;99.90;;;;;;5081461;28;20220;-74
2023/09/02 08:28:12;;;;;;;3.42;1.17;;;14.90;99.90;;;;;;5087350;28;20231;-76
2023/09/02 08:30:44;;;;;;;5.65;1.45;;;14.90;99.90;;;;;;5088585;28;20539;-76
2023/09/02 08:33:16;;;;;;;6.55;1.27;;;14.80;99.90;;;;;;5085416;28;20197;-76
2023/09/02 08:35:47;;;;;;;2.50;1.17;;;14.80;99.90;;;;;;5073068;28;20196;-75
2023/09/02 08:38:18;;;;;;;3.38;1.00;;;14.80;99.90;;;;;;5074524;28;20201;-82
2023/09/02 08:40:50;;;;;;;4.63;1.30;;;14.80;99.90;;;;;;5072937;28;20652;-77
2023/09/02 08:43:21;;;;;;;5.68;1.25;;;14.80;99.90;;;;;;5073118;28;20197;-84
2023/09/02 08:45:55;;;;;;;3.40;1.20;;;14.70;99.90;;;;;;5078509;28;20208;-81
2023/09/02 08:48:28;;;;;;;6.43;1.38;;;14.70;99.90;;;;;;5072802;28;20194;-80
2023/09/02 08:51:00;;;;;;;7.38;1.77;;;14.70;99.90;;;;;;5076969;28;20193;-76
2023/09/02 08:53:39;;;;;;;4.45;1.60;;;14.70;99.90;;;;;;5086421;28;20206;-74
2023/09/02 08:56:10;;;;;;;5.13;1.02;;;14.60;99.90;;;;;;5079381;28;20231;-78
2023/09/02 08:58:43;;;;;;;4.65;1.13;;;14.60;99.90;;;;;;5087732;28;20196;-81
2023/09/02 09:01:20;;;;;;;3.50;1.20;;;14.60;99.90;;;;;;5075171;28;20196;-83
2023/09/02 09:03:57;;;;;;;5.55;1.17;;;14.60;99.90;;;;;;5090599;28;20663;-81
2023/09/02 09:06:29;;;;;;;3.97;1.05;;;14.60;99.90;;;;;;5092400;28;20591;-76
2023/09/02 09:09:00;;;;;;;7.63;1.50;;;14.60;99.90;;;;;;5083295;28;20201;-81
2023/09/02 09:11:33;;;;;;;5.53;1.45;;;14.60;99.90;;;;;;5086278;28;20589;-79
2023/09/02 09:14:05;;;;;;;3.55;1.33;;;14.60;99.90;;;;;;5086030;28;20196;-84
2023/09/02 09:16:39;;;;;;;4.32;1.20;;;14.50;99.90;;;;;;5077085;28;20192;-80
2023/09/02 09:19:12;;;;;;;6.22;1.15;;;14.50;99.90;;;;;;5076160;28;20560;-82
2023/09/02 09:21:43;;;;;;;6.55;1.30;;;14.50;99.90;;;;;;5092286;28;20652;-80
2023/09/02 09:24:15;;;;;;;5.00;1.23;;;14.50;99.90;;;;;;5081298;28;20649;-82
2023/09/02 09:26:46;;;;;;;3.00;1.30;;;14.40;99.90;;;;;;5084568;28;20219;-80
2023/09/02 09:29:18;;;;;;;3.08;1.38;;;14.50;99.90;;;;;;5079145;28;20208;-85
2023/09/02 09:31:48;;;;;;;3.00;1.25;;;14.50;99.90;;;;;;5076643;28;20220;-82
2023/09/02 09:34:24;;;;;;;4.95;1.50;;;14.40;99.90;;;;;;5080762;28;20279;-75
2023/09/02 09:37:00;;;;;;;3.65;1.52;;;14.40;99.90;;;;;;5076913;28;20661;-81
2023/09/02 09:39:42;;;;;;;2.67;1.60;;;14.40;99.90;;;;;;5086541;28;20211;-75
2023/09/02 09:42:14;;;;;;;4.55;1.45;;;14.40;99.90;;;;;;5078423;28;20193;-78
2023/09/02 09:44:58;;;;;;;3.33;1.60;;;14.40;99.90;;;;;;5088311;28;20203;-74
2023/09/02 09:47:30;;;;;;;6.68;1.70;;;14.40;99.90;;;;;;5076050;28;20572;-75
2023/09/02 09:53:06;;;;;;;3.15;1.48;;;14.40;99.90;;;;;;5140625;27;20995;-74
2023/09/02 09:55:37;;;;;;;5.47;1.40;;;14.30;99.90;;;;;;5120370;28;20205;-84
2023/09/02 09:58:07;;;;;;;3.45;1.60;;;14.30;99.90;;;;;;5110995;28;20199;-77
2023/09/02 10:00:38;;;;;;;4.85;1.55;;;14.20;99.90;;;;;;5117185;28;20201;-77
2023/09/02 10:03:09;;;;;;;3.47;1.42;;;14.30;99.90;;;;;;5122642;28;20576;-74
2023/09/02 10:05:40;;;;;;;3.67;1.65;;;14.20;99.90;;;;;;5113503;28;20532;-80
2023/09/02 10:08:13;;;;;;;2.53;1.30;;;14.20;99.90;;;;;;5122449;28;20206;-80
2023/09/02 10:10:44;;;;;;;3.55;1.45;;;14.20;99.90;;;;;;5119620;28;20296;-75
2023/09/02 10:13:15;;;;;;;2.65;1.17;;;14.20;99.90;;;;;;5122616;28;20192;-79
2023/09/02 10:15:46;;;;;;;2.88;1.25;;;14.20;99.90;;;;;;5110686;28;20206;-79
2023/09/02 10:18:17;;;;;;;4.10;1.20;;;14.20;99.90;;;;;;5115199;28;20195;-83
2023/09/02 10:20:49;;;;;;;3.30;1.15;;;14.10;99.90;;;;;;5111324;28;20191;-86
2023/09/02 10:23:24;;;;;;;4.25;1.10;;;14.10;99.90;;;;;;5125539;28;20192;-81
2023/09/02 10:26:03;;;;;;;3.78;1.25;;;14.10;99.90;;;;;;5129514;28;20194;-84
2023/09/02 10:28:39;;;;;;;4.45;1.17;;;14.10;99.90;;;;;;5125384;28;20199;-80
2023/09/02 10:31:17;;;;;;;2.75;0.98;;;14.10;99.90;;;;;;5124324;28;20218;-81
2023/09/02 10:33:52;;;;;;;3.95;1.40;;;14.00;99.90;;;;;;5128468;28;20199;-85
2023/09/02 10:36:25;;;;;;;4.28;1.40;;;14.00;99.90;;;;;;5120021;28;20194;-85
2023/09/02 10:39:03;;;;;;;3.50;1.30;;;14.00;99.90;;;;;;5126194;28;20188;-78
2023/09/02 10:41:35;;;;;;;2.85;1.30;;;14.00;99.90;;;;;;5116893;28;20199;-76
2023/09/02 10:44:06;;;;;;;3.47;1.73;;;14.00;99.90;;;;;;5129736;28;20195;-74
2023/09/02 10:46:37;;;;;;;2.88;1.23;;;14.00;99.90;;;;;;5115974;28;20548;-78
2023/09/02 10:49:08;;;;;;;3.13;1.30;;;14.00;99.90;;;;;;5116181;28;20219;-77
2023/09/02 10:51:41;;;;;;;4.63;1.55;;;14.00;99.90;;;;;;5108931;28;20694;-77
2023/09/02 10:54:13;;;;;;;3.25;1.10;;;14.00;99.90;;;;;;5107095;28;20558;-78
2023/09/02 10:56:44;;;;;;;2.35;1.20;;;13.90;99.90;;;;;;5109355;28;20198;-74
2023/09/02 10:59:29;;;;;;;5.13;1.15;;;13.90;99.90;;;;;;5106396;28;20200;-75
2023/09/02 11:01:59;;;;;;;3.60;1.05;;;13.90;99.90;;;;;;5109225;28;20196;-76
2023/09/02 11:05:05;;;;;;;2.88;1.10;;;13.90;99.90;;;;;;5092481;28;20196;-76
2023/09/02 11:07:36;;;;;;;3.47;1.20;;;13.90;99.90;;;;;;5006741;28;20703;-75
2023/09/02 11:10:11;;;;;;;1.45;1.00;;;13.90;99.90;;;;;;5010016;28;20199;-75
2023/09/02 11:13:06;;;;;;;2.63;1.23;;;13.90;99.90;;;;;;5053879;28;20602;-77
2023/09/02 11:15:38;;;;;;;3.25;1.10;;;13.90;99.90;;;;;;5079833;28;20242;-75
2023/09/02 11:18:32;;;;;;;4.40;1.42;;;13.90;99.90;;;;;;5094504;28;20188;-77
2023/09/02 11:21:03;;;;;;;5.40;1.80;;;13.90;99.90;;;;;;5086669;28;20235;-78
2023/09/02 11:23:35;;;;;;;5.05;2.30;;;14.00;99.90;;;;;;5089439;28;20284;-75
2023/09/02 11:26:13;;;;;;;5.15;2.45;;;14.00;99.90;;;;;;5095342;28;20199;-75
2023/09/02 11:28:44;;;;;;;7.43;3.35;;;14.00;99.90;;;;;;5091885;28;20204;-77
2023/09/02 11:31:16;;;;;;;7.47;3.63;;;14.10;99.90;;;;;;5095385;28;20212;-75
2023/09/02 11:33:50;;;;;;;7.90;3.40;;;14.10;99.90;;;;;;5092000;28;20204;-75
2023/09/02 11:36:21;;;;;;;6.03;3.80;;;14.10;99.90;;;;;;5094827;28;20214;-74
2023/09/02 11:38:52;;;;;;;6.38;3.22;;;14.10;99.90;;;;;;5091790;28;20197;-77
2023/09/02 11:41:28;;;;;;;9.63;3.58;;;14.20;99.90;;;;;;5092894;28;20200;-77
2023/09/02 11:43:58;;;;;;;4.45;2.90;;;14.20;99.90;;;;;;5095358;28;20568;-83
2023/09/02 11:46:29;;;;;;;7.97;3.40;;;14.20;99.90;;;;;;5091873;28;20199;-75
2023/09/02 11:49:00;;;;;;;9.73;3.60;;;14.20;99.90;;;;;;5094804;28;20226;-77
2023/09/02 11:51:31;;;;;;;6.05;3.47;;;14.10;99.90;;;;;;5091313;28;20247;-75
2023/09/02 11:54:03;;;;;;;7.13;3.55;;;14.20;99.90;;;;;;5085330;28;20192;-74
2023/09/02 11:56:37;;;;;;;7.43;3.33;;;14.20;99.90;;;;;;5091757;28;20678;-74
2023/09/02 11:59:21;;;;;;;7.88;3.70;;;14.20;99.90;;;;;;5083480;28;20613;-74
2023/09/02 12:02:05;;;;;;;8.20;3.45;;;14.20;99.90;;;;;;5092564;28;20558;-85
2023/09/02 12:04:39;;;;;;;5.60;2.75;;;14.20;99.90;;;;;;5093170;28;20377;-82
2023/09/02 12:07:10;;;;;;;8.05;3.38;;;14.20;99.90;;;;;;5094026;28;20271;-80
2023/09/02 12:09:41;;;;;;;6.35;3.10;;;14.20;99.90;;;;;;5091574;28;20197;-78
2023/09/02 12:12:15;;;;;;;5.05;2.80;;;14.20;99.90;;;;;;5095106;28;20231;-76
2023/09/02 12:14:47;;;;;;;6.00;3.03;;;14.20;99.90;;;;;;5090886;28;20197;-80
2023/09/02 12:17:18;;;;;;;6.97;2.78;;;14.20;99.90;;;;;;5095034;28;20195;-84
2023/09/02 12:19:49;;;;;;;5.95;3.10;;;14.20;99.90;;;;;;5090703;28;20257;-81
2023/09/02 12:22:21;;;;;;;8.07;3.40;;;14.20;99.90;;;;;;5094022;28;20180;-79
2023/09/02 12:24:52;;;;;;;8.73;2.70;;;14.20;99.90;;;;;;5092737;28;20198;-80
2023/09/02 12:27:24;;;;;;;6.50;3.10;;;14.20;99.90;;;;;;5088757;28;20196;-88
2023/09/02 12:29:59;;;;;;;6.93;2.78;;;14.10;99.90;;;;;;5094666;28;20559;-82
2023/09/02 12:32:31;;;;;;;7.88;2.80;;;14.20;99.90;;;;;;5091165;28;20606;-86
2023/09/02 12:35:02;;;;;;;8.40;2.70;;;14.10;99.90;;;;;;5094559;28;20727;-88
2023/09/02 12:37:33;;;;;;;4.43;2.67;;;14.10;99.90;;;;;;5091132;28;20196;-79
2023/09/02 12:40:13;;;;;;;9.65;3.22;;;14.20;99.90;;;;;;5094620;28;20192;-81
2023/09/02 12:42:55;;;;;;;5.05;2.85;;;14.20;99.90;;;;;;5091795;28;20225;-86
2023/09/02 12:45:32;;;;;;;8.15;3.00;;;14.20;99.90;;;;;;5085980;28;20203;-83
2023/09/02 12:48:05;;;;;;;7.35;3.10;;;14.10;99.90;;;;;;5073473;28;20225;-84
2023/09/02 12:50:37;;;;;;;8.20;3.10;;;14.10;99.90;;;;;;5093729;28;20196;-79
2023/09/02 12:53:08;;;;;;;5.75;2.72;;;14.10;99.90;;;;;;5094300;28;20224;-76
2023/09/02 12:55:43;;;;;;;6.55;2.78;;;14.10;99.90;;;;;;5087859;28;20192;-77
2023/09/02 12:58:16;;;;;;;5.45;3.00;;;14.10;99.90;;;;;;5073793;28;20195;-74
2023/09/02 13:00:46;;;;;;;7.32;2.78;;;14.10;99.90;;;;;;5081987;28;20197;-74
2023/09/02 13:03:17;;;;;;;9.43;2.63;;;14.10;99.90;;;;;;5093847;28;20211;-74
2023/09/02 13:05:48;;;;;;;5.93;2.80;;;14.10;99.90;;;;;;5091539;28;20542;-74
2023/09/02 13:08:19;;;;;;;5.65;2.63;;;14.10;99.90;;;;;;5093429;28;20211;-75
2023/09/02 13:10:50;;;;;;;7.85;2.70;;;14.10;99.90;;;;;;5093963;28;20195;-75
2023/09/02 13:13:22;;;;;;;6.65;3.03;;;14.10;99.90;;;;;;5090598;28;20683;-74
2023/09/02 13:15:54;;;;;;;7.63;2.70;;;14.10;99.90;;;;;;5093843;28;20188;-77
2023/09/02 13:18:29;;;;;;;5.57;2.53;;;14.10;99.90;;;;;;5089841;28;20561;-74